Time;durP1;ratioP1;P1;durP2;ratioP2;P2;SDS_P1;SDS_P2;PMS_P1;PMS_P2;Temp;Humidity;BMP_temperature;BMP_pressure;BME280_temperature;BME280_humidity;BME280_pressure;Samples;Min_cycle;Max_cycle;Signal;HPM_P1;HPM_P2
2022/07/27 00:01:18;;;;;;;3.33;3.00;;;;;;;22.10;72.70;95535.81;4898614;29;20698;-85
2022/07/27 00:03:45;;;;;;;3.65;3.22;;;;;;;22.14;73.08;95530.81;4898855;29;20707;-85
2022/07/27 00:06:12;;;;;;;5.13;2.83;;;;;;;22.17;72.70;95525.88;4899817;29;20206;-85
2022/07/27 00:08:38;;;;;;;3.58;3.28;;;;;;;22.15;72.55;95535.81;4899197;29;20199;-85
2022/07/27 00:11:05;;;;;;;3.40;3.10;;;;;;;22.23;72.02;95524.88;4898886;29;20215;-85
2022/07/27 00:13:33;;;;;;;3.40;3.10;;;;;;;22.29;71.63;95525.72;4899149;29;20242;-85
2022/07/27 00:15:59;;;;;;;3.42;3.05;;;;;;;22.32;71.83;95523.38;4899457;29;20207;-85
2022/07/27 00:18:25;;;;;;;3.88;3.10;;;;;;;22.23;72.08;95521.47;4899737;29;20219;-85
2022/07/27 00:20:52;;;;;;;3.42;3.13;;;;;;;22.29;71.65;95531.75;4898376;29;20195;-85
2022/07/27 00:23:18;;;;;;;3.67;3.22;;;;;;;22.25;72.15;95528.06;4899275;29;20246;-85
2022/07/27 00:25:45;;;;;;;6.65;3.50;;;;;;;22.27;71.40;95525.97;4899489;29;20206;-85
2022/07/27 00:28:11;;;;;;;3.63;3.30;;;;;;;22.25;71.77;95522.00;4898689;29;20199;-85
2022/07/27 00:30:39;;;;;;;3.90;3.50;;;;;;;22.23;71.71;95521.47;4898734;29;20203;-85
2022/07/27 00:33:06;;;;;;;3.25;2.90;;;;;;;22.22;72.09;95515.44;4898214;29;20655;-85
2022/07/27 00:35:32;;;;;;;6.95;3.40;;;;;;;22.23;71.66;95511.78;4897969;29;20210;-85
2022/07/27 00:37:59;;;;;;;3.80;3.50;;;;;;;22.24;72.11;95512.56;4898193;29;20222;-85
2022/07/27 00:40:25;;;;;;;4.07;3.42;;;;;;;22.11;72.50;95513.00;4897853;29;20224;-85
2022/07/27 00:42:52;;;;;;;3.63;3.30;;;;;;;22.09;72.45;95510.63;4897937;29;20246;-85
2022/07/27 00:45:18;;;;;;;6.15;3.28;;;;;;;22.11;72.51;95513.78;4898360;29;20207;-84
2022/07/27 00:47:46;;;;;;;8.85;3.55;;;;;;;22.16;72.46;95508.56;4898442;29;20199;-84
2022/07/27 00:50:13;;;;;;;3.60;3.30;;;;;;;22.18;72.47;95506.47;4897847;29;20269;-84
2022/07/27 00:52:41;;;;;;;2.90;2.70;;;;;;;22.19;72.46;95507.28;4897558;29;20306;-84
2022/07/27 00:55:08;;;;;;;3.45;3.15;;;;;;;22.13;72.39;95503.03;4898215;29;20218;-84
2022/07/27 00:57:35;;;;;;;4.03;2.90;;;;;;;22.11;72.55;95498.06;4898614;29;20245;-84
2022/07/27 01:00:01;;;;;;;4.32;3.28;;;;;;;22.16;72.55;95492.03;4897760;29;20250;-84
2022/07/27 01:02:28;;;;;;;3.85;3.20;;;;;;;22.02;73.50;95486.44;4897175;29;20328;-84
2022/07/27 01:04:56;;;;;;;3.97;3.10;;;;;;;21.97;73.43;95491.59;4897553;29;20210;-84
2022/07/27 01:07:22;;;;;;;3.85;2.90;;;;;;;21.96;73.38;95493.41;4897789;29;20278;-84
2022/07/27 01:09:58;;;;;;;3.67;3.38;;;;;;;22.09;73.38;95494.09;4898674;29;20206;-83
2022/07/27 01:12:26;;;;;;;3.50;3.17;;;;;;;22.16;72.78;95497.28;4897250;29;20230;-84
2022/07/27 01:14:54;;;;;;;4.63;3.08;;;;;;;22.17;72.95;95494.41;4897730;29;20205;-85
2022/07/27 01:17:20;;;;;;;4.68;2.58;;;;;;;22.15;72.33;95490.44;4897507;29;20738;-84
2022/07/27 01:19:47;;;;;;;4.50;2.85;;;;;;;22.07;72.08;95489.09;4898135;29;20301;-85
2022/07/27 01:22:15;;;;;;;3.10;2.90;;;;;;;21.97;72.58;95486.34;4896709;29;20242;-84
2022/07/27 01:24:42;;;;;;;3.78;3.05;;;;;;;21.92;72.83;95483.72;4896755;29;20230;-84
2022/07/27 01:27:08;;;;;;;3.72;2.90;;;;;;;21.97;72.17;95475.84;4897633;29;20195;-84
2022/07/27 01:29:37;;;;;;;4.47;3.00;;;;;;;21.92;72.63;95471.38;4897308;29;20234;-84
2022/07/27 01:32:04;;;;;;;3.20;2.97;;;;;;;21.87;72.53;95462.69;4896399;29;20230;-84
2022/07/27 01:34:32;;;;;;;3.15;2.80;;;;;;;21.80;72.89;95460.25;4896218;29;20675;-84
2022/07/27 01:36:59;;;;;;;3.85;3.35;;;;;;;21.61;73.97;95461.66;4897468;29;20319;-83
2022/07/27 01:39:27;;;;;;;3.13;2.75;;;;;;;21.57;74.10;95453.50;4897641;29;20235;-84
2022/07/27 01:41:53;;;;;;;3.10;2.80;;;;;;;21.58;73.70;95449.84;4896104;29;20755;-84
2022/07/27 01:44:20;;;;;;;3.40;3.10;;;;;;;21.62;73.70;95452.75;4896537;29;20251;-85
2022/07/27 01:46:46;;;;;;;3.53;3.20;;;;;;;21.70;73.55;95457.56;4897463;29;20210;-84
2022/07/27 01:49:13;;;;;;;3.78;3.05;;;;;;;21.74;73.75;95457.88;4897066;29;20206;-84
2022/07/27 01:51:39;;;;;;;3.42;2.90;;;;;;;21.76;73.56;95448.69;4896288;29;20202;-84
2022/07/27 01:54:06;;;;;;;3.42;2.65;;;;;;;21.79;73.38;95442.94;4896776;29;20237;-84
2022/07/27 01:56:34;;;;;;;4.10;2.70;;;;;;;21.79;72.90;95445.56;4897072;29;20616;-84
2022/07/27 01:59:00;;;;;;;3.28;2.97;;;;;;;21.70;73.27;95442.63;4896845;29;20683;-84
2022/07/27 02:01:27;;;;;;;4.55;3.03;;;;;;;21.64;73.23;95434.97;4895581;29;20591;-85
2022/07/27 02:03:53;;;;;;;4.90;3.20;;;;;;;21.60;73.45;95433.88;4895695;29;20752;-85
2022/07/27 02:06:19;;;;;;;3.55;2.95;;;;;;;21.54;73.42;95438.31;4896687;29;20203;-85
2022/07/27 02:08:46;;;;;;;4.40;2.85;;;;;;;21.47;73.47;95439.53;4895942;29;20556;-85
2022/07/27 02:13:58;;;;;;;3.20;2.97;;;;;;;21.25;74.29;95445.59;4895940;29;20249;-85
2022/07/27 02:16:24;;;;;;;3.40;3.10;;;;;;;21.28;73.78;95449.56;4896602;29;20207;-84
2022/07/27 02:18:51;;;;;;;3.28;2.97;;;;;;;21.18;74.25;95455.44;4896250;29;20223;-84
2022/07/27 02:21:17;;;;;;;3.05;2.70;;;;;;;21.14;74.54;95450.97;4896024;29;20225;-84
2022/07/27 02:23:45;;;;;;;4.22;3.13;;;;;;;21.22;74.22;95453.94;4895766;29;20238;-84
2022/07/27 02:26:12;;;;;;;3.25;2.95;;;;;;;21.30;73.49;95453.53;4896855;29;20209;-83
2022/07/27 02:28:38;;;;;;;4.43;3.13;;;;;;;21.32;72.69;95467.16;4896108;29;20202;-85
2022/07/27 02:31:06;;;;;;;3.10;2.83;;;;;;;21.26;72.91;95469.97;4895739;29;20207;-83
2022/07/27 02:33:33;;;;;;;3.80;2.90;;;;;;;21.32;72.59;95469.78;4895975;29;20242;-85
2022/07/27 02:35:59;;;;;;;3.83;2.85;;;;;;;21.32;71.93;95469.78;4896336;29;20278;-84
2022/07/27 02:38:26;;;;;;;3.00;2.80;;;;;;;21.35;71.65;95474.53;4896164;29;20207;-84
2022/07/27 02:40:52;;;;;;;3.78;2.70;;;;;;;21.31;71.67;95464.78;4895395;29;20623;-84
2022/07/27 02:43:19;;;;;;;4.72;2.72;;;;;;;21.28;71.41;95466.06;4896052;29;20290;-84
2022/07/27 02:45:45;;;;;;;4.57;2.60;;;;;;;21.34;71.27;95461.69;4896315;29;20615;-84
2022/07/27 02:48:13;;;;;;;2.60;2.40;;;;;;;21.36;71.84;95462.19;4896638;29;20199;-84
2022/07/27 02:50:39;;;;;;;3.90;2.80;;;;;;;21.40;71.35;95465.91;4896405;29;20207;-84
2022/07/27 02:53:06;;;;;;;4.57;2.80;;;;;;;21.37;71.34;95472.44;4894540;29;20241;-84
2022/07/27 02:55:32;;;;;;;3.35;2.85;;;;;;;21.33;71.14;95470.56;4896963;29;20624;-84
2022/07/27 02:57:58;;;;;;;4.07;2.83;;;;;;;21.37;71.24;95476.88;4895717;29;20214;-84
2022/07/27 03:00:25;;;;;;;3.78;2.80;;;;;;;21.32;72.15;95469.78;4895726;29;20227;-85
2022/07/27 03:02:51;;;;;;;2.72;2.53;;;;;;;21.34;71.77;95472.94;4895236;29;20322;-84
2022/07/27 03:05:20;;;;;;;4.03;2.88;;;;;;;21.32;72.07;95476.84;4896784;29;20214;-84
2022/07/27 03:07:46;;;;;;;5.28;2.80;;;;;;;21.27;72.47;95468.94;4896205;29;20713;-84
2022/07/27 03:10:13;;;;;;;2.80;2.60;;;;;;;21.31;72.02;95478.69;4896459;29;20206;-84
2022/07/27 03:12:39;;;;;;;3.60;2.70;;;;;;;21.39;71.71;95480.03;4895270;29;20694;-84
2022/07/27 03:15:06;;;;;;;2.75;2.55;;;;;;;21.47;71.43;95478.81;4897264;29;20210;-84
2022/07/27 03:17:33;;;;;;;2.65;2.33;;;;;;;21.51;70.80;95482.53;4897048;29;20226;-84
2022/07/27 03:19:59;;;;;;;4.30;2.60;;;;;;;21.50;71.05;95481.75;4898423;29;20250;-84
2022/07/27 03:22:29;;;;;;;3.45;2.65;;;;;;;21.48;70.89;95478.59;4898765;29;20219;-84
2022/07/27 03:24:56;;;;;;;3.97;2.63;;;;;;;21.49;70.71;95477.56;4899546;29;20659;-83
2022/07/27 03:27:22;;;;;;;2.80;2.60;;;;;;;21.46;70.77;95482.47;4899726;29;20266;-84
2022/07/27 03:29:48;;;;;;;3.72;2.50;;;;;;;21.42;70.42;95481.38;4899514;29;20203;-84
2022/07/27 03:32:15;;;;;;;4.05;2.60;;;;;;;21.37;70.61;95485.53;4899047;29;20215;-83
2022/07/27 03:34:41;;;;;;;4.50;2.42;;;;;;;21.34;69.91;95483.44;4898766;29;20302;-84
2022/07/27 03:37:07;;;;;;;3.25;2.22;;;;;;;21.28;68.88;95479.16;4899499;29;20215;-84
2022/07/27 03:39:35;;;;;;;2.30;2.10;;;;;;;21.22;69.41;95480.13;4899219;29;20259;-84
2022/07/27 03:42:02;;;;;;;2.47;2.28;;;;;;;21.20;69.51;95471.72;4898016;29;20199;-84
2022/07/27 03:44:29;;;;;;;3.38;2.58;;;;;;;21.16;69.88;95472.47;4898284;29;20237;-84
2022/07/27 03:46:55;;;;;;;4.50;2.60;;;;;;;21.15;69.69;95476.91;4898909;29;20206;-84
2022/07/27 03:49:21;;;;;;;4.38;2.85;;;;;;;21.17;69.57;95471.41;4899103;29;20564;-84
2022/07/27 03:51:48;;;;;;;3.08;2.60;;;;;;;21.14;69.44;95472.69;4897062;29;20207;-84
2022/07/27 03:54:16;;;;;;;2.50;2.13;;;;;;;21.16;69.54;95472.47;4898353;29;20655;-83
2022/07/27 03:56:44;;;;;;;3.33;2.33;;;;;;;21.14;70.13;95467.47;4898962;29;20242;-83
2022/07/27 03:59:11;;;;;;;4.95;2.38;;;;;;;21.18;69.84;95462.50;4898241;29;20734;-84
2022/07/27 04:01:37;;;;;;;3.83;2.45;;;;;;;21.18;69.78;95467.75;4897510;29;20214;-83
2022/07/27 04:04:04;;;;;;;4.07;2.60;;;;;;;21.15;70.28;95452.53;4897202;28;20711;-83
2022/07/27 04:06:30;;;;;;;2.63;2.42;;;;;;;21.27;71.28;95456.63;4896771;29;20251;-86
2022/07/27 04:08:56;;;;;;;3.30;2.30;;;;;;;21.29;69.41;95448.53;4896776;29;20255;-85
2022/07/27 04:11:23;;;;;;;4.15;2.33;;;;;;;21.26;69.28;95449.81;4896881;29;20215;-86
2022/07/27 04:13:51;;;;;;;3.80;2.47;;;;;;;21.31;69.67;95446.47;4896663;29;20239;-86
2022/07/27 04:16:17;;;;;;;2.60;2.40;;;;;;;21.32;69.29;95440.19;4897334;29;20294;-86
2022/07/27 04:18:44;;;;;;;3.53;2.40;;;;;;;21.37;68.62;95446.25;4896648;29;20206;-85
2022/07/27 04:21:10;;;;;;;3.00;2.35;;;;;;;21.32;68.76;95451.44;4896369;29;20575;-85
2022/07/27 04:23:37;;;;;;;5.38;2.30;;;;;;;21.36;69.16;95449.09;4896422;29;20262;-85
2022/07/27 04:26:03;;;;;;;3.63;2.05;;;;;;;21.40;67.77;95444.97;4897193;29;20247;-85
2022/07/27 04:28:31;;;;;;;3.78;2.00;;;;;;;21.42;67.61;95447.34;4897484;29;20211;-86
2022/07/27 04:30:59;;;;;;;3.00;2.45;;;;;;;21.41;67.11;95454.41;4896321;29;20278;-84
2022/07/27 04:33:25;;;;;;;3.28;2.47;;;;;;;21.36;66.09;95459.59;4897292;29;20762;-83
2022/07/27 04:35:51;;;;;;;2.35;2.17;;;;;;;21.34;65.95;95464.31;4898002;29;20714;-83
2022/07/27 04:38:18;;;;;;;5.80;2.58;;;;;;;21.35;66.58;95450.97;4898581;29;20265;-83
2022/07/27 04:40:44;;;;;;;4.18;2.30;;;;;;;21.41;66.29;95445.75;4897679;29;20230;-83
2022/07/27 04:43:11;;;;;;;4.10;2.15;;;;;;;21.46;66.59;95449.22;4896415;28;20242;-83
2022/07/27 04:45:37;;;;;;;4.30;2.20;;;;;;;21.57;66.33;95455.34;4897503;29;20213;-83
2022/07/27 04:48:09;;;;;;;2.63;2.25;;;;;;;21.64;65.01;95454.09;4892382;29;20213;-84
2022/07/27 04:50:39;;;;;;;4.47;2.33;;;;;;;21.82;65.00;95454.78;4887397;29;20294;-85
2022/07/27 04:53:09;;;;;;;5.50;2.28;;;;;;;21.76;63.74;95447.91;4901198;29;20761;-84
2022/07/27 04:55:35;;;;;;;3.75;2.70;;;;;;;21.74;63.76;95450.00;4897853;29;20210;-84
2022/07/27 04:58:02;;;;;;;2.80;1.98;;;;;;;21.75;63.37;95448.94;4895661;29;20277;-83
2022/07/27 05:00:28;;;;;;;4.40;2.17;;;;;;;21.69;62.19;95456.78;4891995;29;20253;-84
2022/07/27 05:02:55;;;;;;;4.18;2.08;;;;;;;21.62;62.01;95456.19;4896178;29;20238;-84
2022/07/27 05:05:23;;;;;;;4.03;2.50;;;;;;;21.48;62.60;95462.88;4894769;29;20202;-84
2022/07/27 05:07:53;;;;;;;5.40;2.60;;;;;;;21.50;62.58;95465.25;4896393;29;20615;-84
2022/07/27 05:10:20;;;;;;;3.83;2.00;;;;;;;21.37;62.62;95467.19;4894886;29;20209;-83
2022/07/27 05:12:48;;;;;;;2.45;2.20;;;;;;;21.34;62.78;95462.47;4882817;29;20285;-84
2022/07/27 05:15:15;;;;;;;4.53;2.03;;;;;;;21.41;62.13;95456.22;4895421;29;20267;-84
2022/07/27 05:17:42;;;;;;;4.93;2.60;;;;;;;21.36;61.67;95462.19;4894943;29;20226;-84
2022/07/27 05:20:13;;;;;;;5.57;2.40;;;;;;;21.42;62.18;95466.47;4892780;29;20227;-84
2022/07/27 05:22:43;;;;;;;3.42;2.17;;;;;;;21.35;62.10;95463.28;4893874;29;20241;-84
2022/07/27 05:25:10;;;;;;;5.10;2.20;;;;;;;21.38;61.43;95479.25;4895297;29;20214;-84
2022/07/27 05:27:37;;;;;;;3.78;2.38;;;;;;;21.43;61.74;95472.50;4895002;29;20213;-84
2022/07/27 05:30:04;;;;;;;3.40;3.00;;;;;;;21.49;61.88;95474.13;4895526;29;20203;-84
2022/07/27 05:32:31;;;;;;;6.97;5.53;;;;;;;21.48;61.44;95477.78;4893696;29;20227;-83
2022/07/27 05:34:59;;;;;;;3.75;3.00;;;;;;;21.47;61.77;95478.81;4895627;29;20213;-83
2022/07/27 05:37:26;;;;;;;4.88;2.65;;;;;;;21.53;60.75;95476.03;4895637;29;20266;-84
2022/07/27 05:39:58;;;;;;;5.80;2.35;;;;;;;21.60;60.77;95479.22;4894329;29;20334;-84
2022/07/27 05:42:24;;;;;;;4.47;2.30;;;;;;;21.67;59.88;95479.03;4894316;28;20223;-83
2022/07/27 05:44:53;;;;;;;3.42;2.38;;;;;;;21.78;59.62;95493.00;4887492;29;20258;-85
2022/07/27 05:47:19;;;;;;;3.13;2.80;;;;;;;21.86;59.39;95490.72;4892878;29;20226;-84
2022/07/27 05:49:47;;;;;;;5.63;2.20;;;;;;;21.85;59.45;95483.91;4895781;29;20195;-83
2022/07/27 05:52:14;;;;;;;5.15;2.58;;;;;;;21.74;59.80;95489.31;4894152;29;20317;-84
2022/07/27 05:54:41;;;;;;;3.97;2.38;;;;;;;21.67;60.37;95489.50;4895373;29;20231;-84
2022/07/27 05:57:09;;;;;;;2.75;1.90;;;;;;;21.49;59.44;95490.66;4892820;29;20231;-83
2022/07/27 05:59:38;;;;;;;3.45;2.20;;;;;;;21.63;60.02;95485.78;4895214;29;20633;-83
2022/07/27 06:02:04;;;;;;;4.13;2.40;;;;;;;21.74;58.75;95491.94;4907365;29;20233;-84
2022/07/27 06:04:31;;;;;;;5.88;2.40;;;;;;;21.81;57.30;95492.50;4897950;28;20234;-84
2022/07/27 06:09:41;;;;;;;4.90;2.00;;;;;;;21.92;57.13;95492.38;4895016;29;20215;-84
2022/07/27 06:12:09;;;;;;;3.45;1.88;;;;;;;21.90;57.82;95491.03;4893061;29;20238;-83
2022/07/27 06:14:36;;;;;;;2.20;2.00;;;;;;;21.99;57.44;95492.13;4894559;29;20230;-83
2022/07/27 06:17:06;;;;;;;3.63;1.90;;;;;;;22.09;56.91;95502.75;4895455;29;20209;-83
2022/07/27 06:19:33;;;;;;;3.10;1.90;;;;;;;22.20;57.01;95508.84;4896083;29;20199;-83
2022/07/27 06:21:59;;;;;;;2.53;1.92;;;;;;;22.11;57.59;95507.75;4894919;29;20267;-83
2022/07/27 06:24:25;;;;;;;3.65;2.25;;;;;;;22.19;57.30;95509.88;4894166;29;20640;-84
2022/07/27 06:26:54;;;;;;;2.75;2.10;;;;;;;22.25;56.79;95504.44;4896408;29;20206;-83
2022/07/27 06:29:22;;;;;;;2.58;1.95;;;;;;;22.32;56.49;95504.25;4895435;29;20207;-83
2022/07/27 06:31:50;;;;;;;6.40;2.08;;;;;;;22.43;55.74;95499.84;4895674;29;20908;-83
2022/07/27 06:34:18;;;;;;;6.55;2.58;;;;;;;22.55;55.84;95508.31;4897049;29;20234;-83
2022/07/27 06:36:47;;;;;;;5.13;2.38;;;;;;;22.65;55.42;95498.66;4898121;29;20199;-83
2022/07/27 06:39:13;;;;;;;3.10;2.30;;;;;;;22.49;56.52;95496.22;4897300;29;20242;-84
2022/07/27 06:41:40;;;;;;;5.85;2.28;;;;;;;22.57;55.87;95500.97;4893857;29;20226;-84
2022/07/27 06:44:06;;;;;;;2.95;2.63;;;;;;;22.54;55.71;95493.59;4894273;29;20235;-83
2022/07/27 06:46:34;;;;;;;3.67;2.00;;;;;;;22.70;55.76;95485.59;4896472;29;20750;-83
2022/07/27 06:49:00;;;;;;;3.33;2.08;;;;;;;22.80;54.14;95499.81;4896670;29;20203;-83
2022/07/27 06:51:27;;;;;;;2.83;1.92;;;;;;;22.91;53.94;95494.34;4889352;29;20211;-83
2022/07/27 06:53:53;;;;;;;4.40;2.00;;;;;;;23.01;54.17;95501.50;4889270;29;20703;-83
2022/07/27 06:56:21;;;;;;;3.92;2.03;;;;;;;23.13;53.92;95493.38;4892932;29;20706;-82
2022/07/27 06:58:48;;;;;;;1.90;1.80;;;;;;;23.14;54.08;95493.13;4899342;29;20194;-82
2022/07/27 07:01:15;;;;;;;3.55;2.10;;;;;;;23.08;51.46;95487.09;4895665;29;20236;-83
2022/07/27 07:03:43;;;;;;;2.30;1.90;;;;;;;23.15;52.42;95493.94;4893852;29;20230;-82
2022/07/27 07:06:09;;;;;;;4.32;2.22;;;;;;;23.22;52.89;95491.88;4894888;29;20909;-83
2022/07/27 07:08:36;;;;;;;2.40;1.80;;;;;;;23.26;51.26;95485.84;4894632;29;20202;-83
2022/07/27 07:11:02;;;;;;;2.35;1.90;;;;;;;23.49;52.22;95481.94;4893315;29;20211;-83
2022/07/27 07:13:29;;;;;;;6.80;2.00;;;;;;;23.82;52.16;95478.09;4894131;29;20282;-84
2022/07/27 07:15:56;;;;;;;2.70;1.90;;;;;;;24.02;50.76;95475.47;4893481;29;20218;-83
2022/07/27 07:18:22;;;;;;;2.38;1.90;;;;;;;23.93;49.59;95477.03;4893010;29;20297;-82
2022/07/27 07:20:50;;;;;;;5.03;1.92;;;;;;;23.78;49.95;95479.66;4893305;29;20234;-84
2022/07/27 07:23:16;;;;;;;2.17;1.77;;;;;;;23.76;50.69;95479.91;4896247;29;20722;-83
2022/07/27 07:25:43;;;;;;;3.60;1.70;;;;;;;23.83;50.38;95479.66;4898404;29;20623;-84
2022/07/27 07:28:09;;;;;;;4.00;1.92;;;;;;;23.92;50.80;95474.66;4898540;29;20213;-84
2022/07/27 07:30:37;;;;;;;4.60;1.98;;;;;;;23.96;50.62;95475.72;4915230;29;20221;-83
2022/07/27 07:33:04;;;;;;;3.67;2.17;;;;;;;24.04;50.58;95478.63;4915356;28;20238;-83
2022/07/27 07:35:30;;;;;;;2.38;2.17;;;;;;;24.16;50.99;95472.28;4916056;29;20210;-83
2022/07/27 07:37:58;;;;;;;2.97;1.90;;;;;;;24.26;51.20;95473.09;4915183;29;20210;-84
2022/07/27 07:40:25;;;;;;;4.07;2.25;;;;;;;24.33;50.54;95468.34;4895588;29;20226;-83
2022/07/27 07:42:54;;;;;;;4.75;2.30;;;;;;;24.32;49.78;95477.31;4895108;29;20268;-84
2022/07/27 07:45:22;;;;;;;2.30;2.10;;;;;;;24.35;50.60;95476.78;4896513;29;20214;-84
2022/07/27 07:47:48;;;;;;;3.92;2.10;;;;;;;24.43;51.63;95470.19;4896803;29;20341;-84
2022/07/27 07:50:15;;;;;;;7.38;1.90;;;;;;;24.60;50.52;95480.41;4896066;29;20207;-84
2022/07/27 07:52:42;;;;;;;5.03;2.20;;;;;;;24.52;49.39;95479.13;4887272;28;20231;-84
2022/07/27 07:55:10;;;;;;;4.07;2.00;;;;;;;24.56;49.70;95477.53;4914710;29;20202;-84
2022/07/27 07:57:37;;;;;;;4.57;1.90;;;;;;;24.63;49.79;95478.03;4897155;29;20203;-85
2022/07/27 08:00:05;;;;;;;5.90;2.03;;;;;;;24.77;49.20;95486.97;4896611;29;20199;-83
2022/07/27 08:02:31;;;;;;;3.50;2.03;;;;;;;24.80;49.27;95488.28;4895686;29;20234;-84
2022/07/27 08:04:58;;;;;;;2.30;2.10;;;;;;;24.85;49.60;95492.72;4895530;29;20207;-84
2022/07/27 08:07:24;;;;;;;2.35;2.00;;;;;;;24.79;50.12;95484.06;4895871;29;20680;-84
2022/07/27 08:09:50;;;;;;;3.53;2.40;;;;;;;24.78;49.67;95493.81;4897865;29;20215;-84
2022/07/27 08:12:18;;;;;;;6.20;2.30;;;;;;;24.77;49.83;95496.69;4913600;29;20237;-84
2022/07/27 08:14:45;;;;;;;3.25;2.45;;;;;;;24.87;49.84;95494.03;4915006;29;20222;-84
2022/07/27 08:17:11;;;;;;;3.33;2.33;;;;;;;24.89;48.96;95499.03;4914608;29;20277;-84
2022/07/27 08:19:38;;;;;;;4.60;2.35;;;;;;;24.80;49.44;95496.19;4914522;29;20210;-84
2022/07/27 08:22:04;;;;;;;2.80;2.10;;;;;;;24.78;49.41;95490.38;4913988;29;20230;-84
2022/07/27 08:24:31;;;;;;;2.85;2.30;;;;;;;24.91;48.89;95489.81;4914686;28;20737;-84
2022/07/27 08:26:57;;;;;;;6.47;2.38;;;;;;;25.04;48.52;95496.38;4912029;29;20731;-83
2022/07/27 08:29:25;;;;;;;2.92;2.15;;;;;;;25.18;48.47;95499.22;4895814;29;20221;-84
2022/07/27 08:31:52;;;;;;;2.70;2.42;;;;;;;25.27;47.53;95492.31;4894296;29;20199;-84
2022/07/27 08:34:18;;;;;;;2.30;2.10;;;;;;;25.34;47.78;95493.63;4894500;29;20995;-84
2022/07/27 08:36:44;;;;;;;2.58;2.20;;;;;;;25.25;48.14;95489.16;4896373;29;20195;-84
2022/07/27 08:39:11;;;;;;;3.38;2.28;;;;;;;25.18;48.41;95494.75;4910139;29;20215;-84
2022/07/27 08:41:38;;;;;;;3.10;2.10;;;;;;;25.18;48.20;95497.38;4913016;29;20218;-84
2022/07/27 08:44:06;;;;;;;2.75;2.20;;;;;;;25.36;47.43;95496.78;4909431;28;20231;-85
2022/07/27 08:46:35;;;;;;;4.25;2.28;;;;;;;25.43;46.82;95491.19;4895712;29;20207;-85
2022/07/27 08:49:04;;;;;;;2.42;2.22;;;;;;;25.40;47.10;95495.16;4895490;29;20211;-85
2022/07/27 08:51:31;;;;;;;2.25;2.03;;;;;;;25.34;48.36;95495.47;4894290;29;20203;-84
2022/07/27 08:53:58;;;;;;;2.10;1.90;;;;;;;25.16;47.40;95496.06;4894257;29;20245;-85
2022/07/27 08:56:25;;;;;;;2.83;2.08;;;;;;;25.11;48.01;95502.16;4895251;29;20206;-84
2022/07/27 08:58:51;;;;;;;2.75;2.10;;;;;;;25.04;47.55;95505.06;4895588;29;20235;-84
2022/07/27 09:01:18;;;;;;;2.03;1.83;;;;;;;25.06;47.31;95495.03;4893314;29;20359;-85
2022/07/27 09:03:46;;;;;;;5.82;1.98;;;;;;;25.11;47.44;95502.16;4893685;29;20231;-85
2022/07/27 09:06:13;;;;;;;4.32;2.20;;;;;;;25.11;47.78;95502.16;4895155;29;20733;-84
2022/07/27 09:08:40;;;;;;;7.15;1.88;;;;;;;25.13;47.44;95497.41;4895779;29;20207;-84
2022/07/27 09:11:14;;;;;;;2.13;1.90;;;;;;;25.09;47.12;95504.25;4894289;29;20631;-84
2022/07/27 09:13:41;;;;;;;4.00;2.15;;;;;;;25.19;47.40;95504.22;4893950;29;20261;-85
2022/07/27 09:16:10;;;;;;;4.07;2.15;;;;;;;25.22;47.45;95518.69;4895161;29;20211;-85
2022/07/27 09:18:38;;;;;;;4.53;2.10;;;;;;;25.29;47.68;95513.94;4893625;29;20695;-84
2022/07/27 09:21:10;;;;;;;5.38;2.03;;;;;;;25.31;47.71;95512.59;4893587;29;20741;-84
2022/07/27 09:23:37;;;;;;;3.53;2.03;;;;;;;25.39;47.37;95508.63;4893541;29;20245;-84
2022/07/27 09:26:12;;;;;;;3.47;2.00;;;;;;;25.41;47.41;95501.19;4894860;29;20210;-84
2022/07/27 09:28:39;;;;;;;2.80;2.30;;;;;;;25.36;46.26;95495.97;4895012;29;20249;-85
2022/07/27 09:31:07;;;;;;;3.42;2.00;;;;;;;25.27;47.17;95501.00;4894291;29;20202;-84
2022/07/27 09:33:41;;;;;;;3.42;1.75;;;;;;;25.23;46.76;95509.72;4893739;29;20235;-84
2022/07/27 09:36:08;;;;;;;3.50;2.00;;;;;;;25.26;47.92;95504.72;4895038;29;20245;-85
2022/07/27 09:38:35;;;;;;;2.67;1.90;;;;;;;25.27;45.50;95511.56;4894028;29;20679;-85
2022/07/27 09:41:03;;;;;;;2.95;1.80;;;;;;;25.33;45.25;95507.84;4892906;29;20647;-85
2022/07/27 09:43:32;;;;;;;2.58;1.70;;;;;;;25.33;44.97;95512.34;4892564;29;20245;-84
2022/07/27 09:46:06;;;;;;;2.63;1.67;;;;;;;25.39;44.88;95511.25;4894172;29;20587;-85
2022/07/27 09:48:35;;;;;;;4.00;2.00;;;;;;;25.47;45.52;95510.66;4894077;29;20626;-85
2022/07/27 09:51:03;;;;;;;2.10;1.90;;;;;;;25.50;44.90;95511.97;4892888;29;20203;-85
2022/07/27 09:53:32;;;;;;;3.95;2.25;;;;;;;25.57;44.77;95510.63;4892895;29;20242;-85
2022/07/27 09:56:04;;;;;;;7.22;1.92;;;;;;;25.59;45.48;95505.88;4894524;29;20210;-84
2022/07/27 09:58:42;;;;;;;3.55;2.10;;;;;;;25.70;44.88;95507.41;4894077;29;20221;-84
2022/07/27 10:01:10;;;;;;;2.58;1.90;;;;;;;25.96;44.54;95508.03;4895171;29;20740;-84
2022/07/27 10:03:38;;;;;;;3.85;2.03;;;;;;;26.42;43.97;95507.69;4905017;28;20231;-84
2022/07/27 10:06:05;;;;;;;2.85;1.88;;;;;;;26.84;43.64;95509.63;4894335;29;20229;-85
2022/07/27 10:08:32;;;;;;;2.50;2.00;;;;;;;27.41;41.90;95508.72;4894379;29;20214;-85
2022/07/27 10:10:58;;;;;;;3.35;2.13;;;;;;;27.61;40.73;95512.19;4891983;29;20218;-85
2022/07/27 10:13:26;;;;;;;2.75;2.17;;;;;;;27.81;39.95;95509.28;4893190;29;20245;-85
2022/07/27 10:15:53;;;;;;;2.35;1.70;;;;;;;28.02;39.15;95504.47;4895315;29;20211;-85
2022/07/27 10:18:32;;;;;;;2.00;1.63;;;;;;;27.90;38.17;95512.84;4894556;29;20869;-85
2022/07/27 10:21:05;;;;;;;3.95;1.85;;;;;;;27.54;37.58;95512.50;4893109;29;20233;-84
2022/07/27 10:23:36;;;;;;;1.52;1.42;;;;;;;27.64;38.54;95503.69;4888049;29;20238;-84
2022/07/27 10:26:15;;;;;;;1.58;1.48;;;;;;;27.57;36.64;95509.34;4894251;29;20704;-85
2022/07/27 10:28:51;;;;;;;2.47;1.48;;;;;;;27.57;36.49;95521.75;4893274;29;20207;-84
2022/07/27 10:31:18;;;;;;;2.03;1.40;;;;;;;27.47;37.90;95507.59;4877822;29;20207;-85
2022/07/27 10:33:47;;;;;;;3.35;1.85;;;;;;;27.39;37.96;95508.22;4877546;29;20254;-85
2022/07/27 10:36:15;;;;;;;3.65;1.80;;;;;;;27.21;37.61;95503.69;4888233;29;20230;-85
2022/07/27 10:38:47;;;;;;;1.55;1.45;;;;;;;27.26;38.67;95510.78;4912200;29;20203;-85
2022/07/27 10:41:21;;;;;;;2.13;1.70;;;;;;;27.15;39.47;95510.09;4898183;29;20222;-85
2022/07/27 10:43:50;;;;;;;2.95;1.58;;;;;;;27.07;38.72;95516.81;4896214;28;20301;-85
2022/07/27 10:46:19;;;;;;;4.47;1.70;;;;;;;27.02;39.01;95518.72;4897398;29;20211;-84
2022/07/27 10:48:46;;;;;;;1.85;1.40;;;;;;;26.98;39.16;95517.72;4897585;29;20203;-84
2022/07/27 10:51:14;;;;;;;2.08;1.70;;;;;;;27.02;40.00;95522.16;4895569;29;20198;-84
2022/07/27 10:53:43;;;;;;;3.70;1.92;;;;;;;27.06;39.64;95520.53;4894733;29;20795;-83
2022/07/27 10:56:10;;;;;;;2.28;1.80;;;;;;;27.21;40.20;95516.13;4897350;29;20214;-84
2022/07/27 10:58:51;;;;;;;4.72;2.22;;;;;;;27.56;40.43;95517.53;4896151;29;20635;-83
2022/07/27 11:01:21;;;;;;;1.98;1.85;;;;;;;27.96;38.68;95509.03;4896370;29;20227;-83
2022/07/27 11:03:54;;;;;;;1.92;1.60;;;;;;;28.11;39.00;95511.44;4895872;29;20242;-83
2022/07/27 11:06:27;;;;;;;2.53;1.80;;;;;;;28.03;37.81;95506.81;4897229;29;20199;-83
2022/07/27 11:08:54;;;;;;;3.53;1.80;;;;;;;28.01;36.96;95508.97;4897278;29;20435;-84
2022/07/27 11:11:23;;;;;;;4.25;1.88;;;;;;;27.87;37.81;95502.84;4897733;29;20214;-84
2022/07/27 11:13:53;;;;;;;3.15;1.75;;;;;;;27.91;38.52;95510.97;4897123;29;20258;-83
2022/07/27 11:16:20;;;;;;;3.15;1.70;;;;;;;28.00;37.54;95504.75;4909143;29;20195;-83
2022/07/27 11:18:56;;;;;;;3.10;2.05;;;;;;;27.85;38.11;95511.06;4900721;29;20203;-84
2022/07/27 11:21:25;;;;;;;2.75;1.70;;;;;;;27.93;38.56;95504.31;4897978;29;20762;-84
2022/07/27 11:23:53;;;;;;;4.97;1.95;;;;;;;27.81;38.40;95512.69;4895536;29;20310;-83
2022/07/27 11:26:20;;;;;;;2.38;2.00;;;;;;;27.60;39.30;95516.72;4898418;29;20227;-84
2022/07/27 11:28:52;;;;;;;2.50;1.92;;;;;;;27.35;38.64;95512.50;4896567;29;20199;-84
2022/07/27 11:31:21;;;;;;;4.05;2.53;;;;;;;27.34;38.84;95516.22;4896712;29;20270;-83
2022/07/27 11:33:56;;;;;;;3.55;2.78;;;;;;;27.13;38.67;95514.91;4895564;29;20230;-85
2022/07/27 11:36:34;;;;;;;3.25;2.05;;;;;;;27.12;38.87;95508.84;4898459;29;20199;-84
2022/07/27 11:39:01;;;;;;;7.22;3.60;;;;;;;27.03;39.57;95507.09;4897666;29;20310;-83
2022/07/27 11:41:29;;;;;;;7.18;5.20;;;;;;;26.94;38.78;95498.97;4896314;29;20229;-83